createdAt,value
2018-11-06T00:00:34.743Z,0
2018-11-06T00:01:34.492Z,0
2018-11-06T00:02:49.460Z,0
2018-11-06T00:03:34.783Z,0
2018-11-06T00:04:34.830Z,0
2018-11-06T00:05:34.848Z,0
2018-11-06T00:06:34.834Z,0
2018-11-06T00:07:34.900Z,0
2018-11-06T00:08:34.898Z,0
2018-11-06T00:09:34.817Z,0
2018-11-06T00:10:49.580Z,0
2018-11-06T00:11:34.698Z,0
2018-11-06T00:12:34.990Z,0
2018-11-06T00:13:49.372Z,0
2018-11-06T00:14:34.766Z,0
2018-11-06T00:15:34.500Z,0
2018-11-06T00:16:35.069Z,0
2018-11-06T00:17:34.784Z,0
2018-11-06T00:18:34.812Z,0
2018-11-06T00:19:34.826Z,0
2018-11-06T00:20:35.146Z,0
2018-11-06T00:21:49.802Z,0
2018-11-06T00:22:35.142Z,0
2018-11-06T00:23:35.177Z,0
2018-11-06T00:24:35.170Z,0
2018-11-06T00:25:35.235Z,0
2018-11-06T00:26:35.241Z,0
2018-11-06T00:27:35.269Z,0
2018-11-06T00:28:35.257Z,0
2018-11-06T00:29:35.314Z,0
2018-11-06T00:30:35.293Z,0
2018-11-06T00:31:35.335Z,0
2018-11-06T00:32:49.736Z,0
2018-11-06T00:33:35.084Z,0
2018-11-06T00:34:35.363Z,0
2018-11-06T00:35:35.416Z,0
2018-11-06T00:36:35.408Z,0
2018-11-06T00:37:49.838Z,0
2018-11-06T00:38:50.103Z,0
2018-11-06T00:39:35.217Z,0
2018-11-06T00:40:35.462Z,0
2018-11-06T00:41:35.525Z,0
2018-11-06T00:42:50.197Z,0
2018-11-06T00:43:35.542Z,0
2018-11-06T00:44:35.422Z,0
2018-11-06T00:45:35.554Z,0
2018-11-06T00:46:35.620Z,0
2018-11-06T00:47:35.342Z,0
2018-11-06T00:48:50.288Z,0
2018-11-06T00:49:35.742Z,0
2018-11-06T00:50:35.687Z,0
2018-11-06T00:51:35.714Z,0
2018-11-06T00:52:35.434Z,0
2018-11-06T00:53:35.743Z,0
2018-11-06T00:54:35.927Z,0
2018-11-06T00:55:35.760Z,0
2018-11-06T00:56:35.258Z,0
2018-11-06T00:57:35.562Z,0
2018-11-06T00:58:50.201Z,0
2018-11-06T00:59:35.852Z,0
2018-11-06T01:00:35.692Z,0
2018-11-06T01:01:35.635Z,0
2018-11-06T01:02:35.874Z,0
2018-11-06T01:03:35.931Z,0
2018-11-06T01:04:35.651Z,0
2018-11-06T01:05:35.693Z,0
2018-11-06T01:06:35.969Z,0
2018-11-06T01:07:36.021Z,0
2018-11-06T01:08:35.759Z,0
2018-11-06T01:09:36.019Z,0
2018-11-06T01:11:36.053Z,0
2018-11-06T01:12:36.659Z,0
2018-11-06T01:13:35.856Z,0
2018-11-06T01:14:50.751Z,0
2018-11-06T01:15:36.114Z,0
2018-11-06T01:16:35.634Z,0
2018-11-06T01:17:35.954Z,0
2018-11-06T01:18:35.947Z,0
2018-11-06T01:19:36.196Z,0
2018-11-06T01:20:36.245Z,0
2018-11-06T01:21:35.974Z,0
2018-11-06T01:22:36.017Z,0
2018-11-06T01:24:35.788Z,0
2018-11-06T01:25:36.034Z,0
2018-11-06T01:26:36.356Z,0
2018-11-06T01:27:36.091Z,0
2018-11-06T01:28:36.399Z,0
2018-11-06T01:29:51.077Z,0
2018-11-06T01:30:51.080Z,0
2018-11-06T01:31:36.144Z,0
2018-11-06T01:32:36.275Z,0
2018-11-06T01:33:36.206Z,0
2018-11-06T01:34:36.488Z,0
2018-11-06T01:35:36.522Z,0
2018-11-06T01:36:36.240Z,0
2018-11-06T01:37:36.278Z,0
2018-11-06T01:38:36.540Z,0
2018-11-06T01:39:36.595Z,0
2018-11-06T01:40:51.227Z,0
2018-11-06T01:41:36.371Z,0
2018-11-06T01:42:36.656Z,0
2018-11-06T01:43:51.294Z,0
2018-11-06T01:44:36.408Z,0
2018-11-06T01:45:51.329Z,0
2018-11-06T01:47:36.712Z,0
2018-11-06T01:48:36.506Z,0
2018-11-06T01:49:36.798Z,0
2018-11-06T01:50:36.255Z,0
2018-11-06T01:51:36.784Z,0
2018-11-06T01:52:36.838Z,0
2018-11-06T01:53:36.558Z,0
2018-11-06T01:54:36.597Z,0
2018-11-06T01:55:36.849Z,0
2018-11-06T01:56:36.908Z,0
2018-11-06T01:57:36.633Z,0
2018-11-06T01:58:36.686Z,0
2018-11-06T01:59:36.931Z,0
2018-11-06T02:00:36.985Z,0
2018-11-06T02:01:36.702Z,0
2018-11-06T02:02:36.979Z,0
2018-11-06T02:04:37.028Z,0
2018-11-06T02:05:37.072Z,0
2018-11-06T02:06:37.048Z,0
2018-11-06T02:07:36.844Z,0
2018-11-06T02:08:51.586Z,0
2018-11-06T02:09:37.118Z,0
2018-11-06T02:10:36.871Z,0
2018-11-06T02:11:37.185Z,0
2018-11-06T02:12:51.854Z,0
2018-11-06T02:13:51.829Z,0
2018-11-06T02:14:37.241Z,0
2018-11-06T02:15:36.951Z,0
2018-11-06T02:16:36.979Z,0
2018-11-06T02:17:51.940Z,0
2018-11-06T02:18:51.927Z,0
2018-11-06T02:19:37.323Z,0
2018-11-06T02:20:51.966Z,0
2018-11-06T02:21:37.085Z,0
2018-11-06T02:22:52.010Z,0
2018-11-06T02:23:37.507Z,0
2018-11-06T02:24:51.792Z,0
2018-11-06T02:25:37.423Z,0
2018-11-06T02:26:37.475Z,0
2018-11-06T02:27:37.434Z,0
2018-11-06T02:29:37.492Z,0
2018-11-06T02:30:37.542Z,0
2018-11-06T02:31:37.505Z,0
2018-11-06T02:32:37.388Z,0
2018-11-06T02:33:51.949Z,0
2018-11-06T02:34:37.317Z,0
2018-11-06T02:35:37.336Z,0
2018-11-06T02:36:37.479Z,0
2018-11-06T02:37:52.310Z,0
2018-11-06T02:38:37.637Z,0
2018-11-06T02:39:37.696Z,0
2018-11-06T02:40:37.672Z,0
2018-11-06T02:42:37.731Z,0
2018-11-06T02:43:37.763Z,0
2018-11-06T02:44:37.785Z,0
2018-11-06T02:45:37.881Z,0
2018-11-06T02:46:37.532Z,0
2018-11-06T02:47:37.595Z,0
2018-11-06T02:48:37.822Z,0
2018-11-06T02:49:52.514Z,0
2018-11-06T02:50:37.849Z,0
2018-11-06T02:51:37.639Z,0
2018-11-06T02:52:38.036Z,0
2018-11-06T02:53:37.687Z,0
2018-11-06T02:54:37.701Z,0
2018-11-06T02:55:37.490Z,0
2018-11-06T02:56:37.984Z,0
2018-11-06T02:57:37.727Z,0
2018-11-06T02:58:38.079Z,0
2018-11-06T02:59:52.684Z,0
2018-11-06T03:00:37.823Z,0
2018-11-06T03:01:38.076Z,0
2018-11-06T03:02:38.099Z,0
2018-11-06T03:03:38.092Z,0
2018-11-06T03:04:38.110Z,0
2018-11-06T03:05:52.812Z,0
2018-11-06T03:06:37.636Z,0
2018-11-06T03:07:52.853Z,0
2018-11-06T03:08:38.210Z,0
2018-11-06T03:09:52.872Z,0
2018-11-06T03:10:38.386Z,0
2018-11-06T03:11:38.231Z,0
2018-11-06T03:12:38.027Z,0
2018-11-06T03:13:38.298Z,0
2018-11-06T03:14:38.042Z,0
2018-11-06T03:15:37.816Z,0
2018-11-06T03:16:38.367Z,0
2018-11-06T03:17:38.390Z,0
2018-11-06T03:18:38.390Z,0
2018-11-06T03:19:38.412Z,0
2018-11-06T03:20:52.796Z,0
2018-11-06T03:21:53.082Z,0
2018-11-06T03:22:38.475Z,0
2018-11-06T03:24:53.161Z,0
2018-11-06T03:25:38.266Z,0
2018-11-06T03:26:53.049Z,0
2018-11-06T03:27:53.213Z,0
2018-11-06T03:28:38.293Z,0
2018-11-06T03:29:38.593Z,0
2018-11-06T03:30:38.065Z,0
2018-11-06T03:31:38.380Z,0
2018-11-06T03:33:38.136Z,0
2018-11-06T03:34:37.884Z,0
2018-11-06T03:36:38.730Z,0
2018-11-06T03:37:38.704Z,0
2018-11-06T03:38:38.774Z,0
2018-11-06T03:39:38.231Z,0
2018-11-06T03:40:38.804Z,0
2018-11-06T03:41:38.519Z,0
2018-11-06T03:42:38.848Z,0
2018-11-06T03:43:53.478Z,0
2018-11-06T03:44:53.520Z,0
2018-11-06T03:45:38.848Z,0
2018-11-06T03:46:38.629Z,0
2018-11-06T03:47:38.903Z,0
2018-11-06T03:48:38.949Z,0
2018-11-06T03:49:38.705Z,0
2018-11-06T03:50:38.959Z,0
2018-11-06T03:51:38.711Z,0
2018-11-06T03:52:53.633Z,0
2018-11-06T03:53:38.775Z,0
2018-11-06T03:54:38.759Z,0
2018-11-06T03:55:39.077Z,0
2018-11-06T03:56:38.811Z,0
2018-11-06T03:57:53.505Z,0
2018-11-06T03:58:39.098Z,0
2018-11-06T03:59:39.109Z,0
2018-11-06T04:00:39.150Z,0
2018-11-06T04:01:39.171Z,0
2018-11-06T04:02:39.202Z,0
2018-11-06T04:03:39.177Z,0
2018-11-06T04:04:39.218Z,0
2018-11-06T04:05:39.212Z,0
2018-11-06T04:06:53.652Z,0
2018-11-06T04:07:39.004Z,0
2018-11-06T04:08:53.954Z,0
2018-11-06T04:09:53.943Z,0
2018-11-06T04:10:53.466Z,0
2018-11-06T04:11:39.333Z,0
2018-11-06T04:12:39.381Z,0
2018-11-06T04:13:54.046Z,0
2018-11-06T04:14:39.383Z,0
2018-11-06T04:15:38.909Z,0
2018-11-06T04:16:54.066Z,0
2018-11-06T04:17:39.445Z,0
2018-11-06T04:18:39.461Z,0
2018-11-06T04:20:39.265Z,0
2018-11-06T04:21:39.514Z,0
2018-11-06T04:22:39.547Z,0
2018-11-06T04:23:39.546Z,0
2018-11-06T04:24:54.249Z,0
2018-11-06T04:25:39.312Z,0
2018-11-06T04:26:54.284Z,0
2018-11-06T04:27:39.649Z,0
2018-11-06T04:28:39.741Z,0
2018-11-06T04:29:54.313Z,0
2018-11-06T04:30:54.325Z,0
2018-11-06T04:31:39.728Z,0
2018-11-06T04:32:39.721Z,0
2018-11-06T04:33:39.761Z,0
2018-11-06T04:34:39.259Z,0
2018-11-06T04:35:39.768Z,0
2018-11-06T04:36:54.449Z,0
2018-11-06T04:38:39.564Z,0
2018-11-06T04:39:39.906Z,0
2018-11-06T04:40:54.494Z,0
2018-11-06T04:41:39.878Z,0
2018-11-06T04:43:39.657Z,0
2018-11-06T04:44:39.960Z,0
2018-11-06T04:45:39.938Z,0
2018-11-06T04:47:39.706Z,0
2018-11-06T04:48:54.386Z,0
2018-11-06T04:49:40.043Z,0
2018-11-06T04:50:40.032Z,0
2018-11-06T04:51:40.091Z,0
2018-11-06T04:52:40.104Z,0
2018-11-06T04:53:40.077Z,0
2018-11-06T04:54:39.869Z,0
2018-11-06T04:56:39.870Z,0
2018-11-06T04:57:40.171Z,0
2018-11-06T04:58:40.158Z,0
2018-11-06T04:59:40.224Z,0
2018-11-06T05:00:40.197Z,0
2018-11-06T05:02:39.994Z,0
2018-11-06T05:03:40.282Z,0
2018-11-06T05:04:40.268Z,0
2018-11-06T05:05:40.330Z,0
2018-11-06T05:06:40.361Z,0
2018-11-06T05:07:40.075Z,0
2018-11-06T05:08:40.337Z,0
2018-11-06T05:09:40.133Z,0
2018-11-06T05:10:40.398Z,0
2018-11-06T05:11:40.436Z,0
2018-11-06T05:12:40.404Z,0
2018-11-06T05:13:40.467Z,0
2018-11-06T05:14:39.929Z,0
2018-11-06T05:15:40.509Z,0
2018-11-06T05:16:40.483Z,0
2018-11-06T05:18:40.557Z,0
2018-11-06T05:19:40.656Z,0
2018-11-06T05:20:40.307Z,0
2018-11-06T05:21:40.312Z,0
2018-11-06T05:22:40.637Z,0
2018-11-06T05:23:40.605Z,0
2018-11-06T05:24:40.667Z,0
2018-11-06T05:25:41.120Z,0
2018-11-06T05:26:40.688Z,4
2018-11-06T05:28:09.996Z,0
2018-11-06T05:28:40.439Z,0
2018-11-06T05:29:40.755Z,0
2018-11-06T05:30:40.472Z,4
2018-11-06T05:32:40.898Z,0
2018-11-06T05:34:40.628Z,4
2018-11-06T05:35:40.862Z,4
2018-11-06T05:36:40.592Z,4
2018-11-06T05:37:40.935Z,4
2018-11-06T05:38:40.872Z,8
2018-11-06T05:39:40.972Z,12
2018-11-06T05:40:40.658Z,12
2018-11-06T05:41:40.734Z,12
2018-11-06T05:42:40.952Z,12
2018-11-06T05:44:40.992Z,20
2018-11-06T05:45:41.475Z,24
2018-11-06T05:46:41.052Z,28
2018-11-06T05:47:40.528Z,32
2018-11-06T05:48:41.090Z,40
2018-11-06T05:49:41.162Z,44
2018-11-06T05:50:40.861Z,52
2018-11-06T05:52:41.141Z,72
2018-11-06T05:53:40.891Z,84
2018-11-06T05:54:41.197Z,96
2018-11-06T05:55:41.209Z,112
2018-11-06T05:56:41.205Z,124
2018-11-06T05:57:41.217Z,144
2018-11-06T05:59:55.650Z,184
2018-11-06T06:00:41.801Z,204
2018-11-06T06:01:41.301Z,228
2018-11-06T06:02:55.955Z,256
2018-11-06T06:03:41.345Z,276
2018-11-06T06:04:41.101Z,300
2018-11-06T06:05:41.400Z,332
2018-11-06T06:06:41.385Z,364
2018-11-06T06:08:56.057Z,436
2018-11-06T06:10:41.564Z,496
2018-11-06T06:11:41.222Z,532
2018-11-06T06:12:41.517Z,568
2018-11-06T06:13:56.154Z,612
2018-11-06T06:14:41.553Z,636
2018-11-06T06:16:10.843Z,684
2018-11-06T06:16:41.866Z,704
2018-11-06T06:18:41.573Z,780
2018-11-06T06:19:41.119Z,820
2018-11-06T06:20:41.638Z,860
2018-11-06T06:21:41.664Z,904
2018-11-06T06:22:42.134Z,952
2018-11-06T06:23:56.067Z,1020
2018-11-06T06:24:41.725Z,1064
2018-11-06T06:26:41.498Z,1200
2018-11-06T06:27:41.755Z,1272
2018-11-06T06:28:56.585Z,1356
2018-11-06T06:29:41.804Z,1408
2018-11-06T06:31:41.822Z,1540
2018-11-06T06:32:41.604Z,1608
2018-11-06T06:33:41.598Z,1672
2018-11-06T06:34:42.366Z,1740
2018-11-06T06:36:41.929Z,1884
2018-11-06T06:37:41.434Z,1956
2018-11-06T06:38:42.292Z,2036
2018-11-06T06:40:56.750Z,2224
2018-11-06T06:41:56.675Z,2296
2018-11-06T06:42:42.017Z,2348
2018-11-06T06:43:42.169Z,2420
2018-11-06T06:44:42.039Z,2468
2018-11-06T06:45:41.832Z,2460
2018-11-06T06:46:42.078Z,2424
2018-11-06T06:47:42.134Z,2432
2018-11-06T06:48:42.137Z,2496
2018-11-06T06:49:42.160Z,2588
2018-11-06T06:50:42.142Z,2696
2018-11-06T06:51:41.912Z,2812
2018-11-06T06:53:42.214Z,2948
2018-11-06T06:54:43.380Z,3016
2018-11-06T06:55:42.276Z,3088
2018-11-06T06:56:56.915Z,3224
2018-11-06T06:57:42.051Z,3292
2018-11-06T06:58:42.360Z,3344
2018-11-06T06:59:42.323Z,3348
2018-11-06T07:00:42.076Z,3316
2018-11-06T07:01:42.344Z,3372
2018-11-06T07:02:57.051Z,3824
2018-11-06T07:03:42.398Z,5152
2018-11-06T07:04:42.445Z,7276
2018-11-06T07:05:42.175Z,9928
2018-11-06T07:06:42.466Z,12736
2018-11-06T07:07:42.452Z,14048
2018-11-06T07:08:42.475Z,13696
2018-11-06T07:09:42.521Z,13952
2018-11-06T07:10:42.544Z,13568
2018-11-06T07:11:42.572Z,9992
2018-11-06T07:12:42.725Z,7708
2018-11-06T07:13:57.245Z,7452
2018-11-06T07:14:42.582Z,7740
2018-11-06T07:16:42.630Z,8232
2018-11-06T07:17:42.682Z,8312
2018-11-06T07:18:57.346Z,8412
2018-11-06T07:19:42.729Z,8504
2018-11-06T07:20:42.765Z,8540
2018-11-06T07:21:42.221Z,8608
2018-11-06T07:22:42.730Z,8104
2018-11-06T07:23:42.798Z,8240
2018-11-06T07:24:42.798Z,8864
2018-11-06T07:25:57.478Z,8984
2018-11-06T07:26:42.821Z,9056
2018-11-06T07:27:57.508Z,9144
2018-11-06T07:28:43.118Z,9196
2018-11-06T07:29:42.886Z,9252
2018-11-06T07:30:42.409Z,9304
2018-11-06T07:31:42.387Z,9344
2018-11-06T07:32:42.421Z,9384
2018-11-06T07:33:57.620Z,9456
2018-11-06T07:34:58.392Z,9492
2018-11-06T07:35:44.310Z,9552
2018-11-06T07:36:43.014Z,9592
2018-11-06T07:37:42.805Z,9656
2018-11-06T07:38:43.047Z,9700
2018-11-06T07:39:43.092Z,9748
2018-11-06T07:40:43.549Z,9804
2018-11-06T07:41:43.148Z,9336
2018-11-06T07:42:43.161Z,9384
2018-11-06T07:43:42.906Z,9908
2018-11-06T07:44:42.917Z,9936
2018-11-06T07:45:57.855Z,9948
2018-11-06T07:46:43.232Z,9960
2018-11-06T07:47:42.962Z,9948
2018-11-06T07:48:43.282Z,9964
2018-11-06T07:49:43.368Z,9940
2018-11-06T07:50:57.955Z,9972
2018-11-06T07:52:43.368Z,9972
2018-11-06T07:53:43.119Z,9992
2018-11-06T07:54:58.056Z,10004
2018-11-06T07:55:43.078Z,10004
2018-11-06T07:56:57.549Z,10020
2018-11-06T07:57:43.201Z,10036
2018-11-06T07:58:43.212Z,10084
2018-11-06T07:59:43.509Z,10056
2018-11-06T08:00:42.980Z,10052
2018-11-06T08:01:43.539Z,10052
2018-11-06T08:02:43.529Z,10068
2018-11-06T08:03:43.334Z,10136
2018-11-06T08:04:43.055Z,10032
2018-11-06T08:07:43.639Z,10100
2018-11-06T08:08:43.425Z,10120
2018-11-06T08:09:58.615Z,10128
2018-11-06T08:10:43.454Z,10124
2018-11-06T08:11:43.729Z,10156
2018-11-06T08:12:58.469Z,10152
2018-11-06T08:13:43.803Z,10136
2018-11-06T08:14:44.418Z,10140
2018-11-06T08:15:43.822Z,10160
2018-11-06T08:16:58.517Z,10172
2018-11-06T08:17:43.590Z,10160
2018-11-06T08:18:43.636Z,10160
2018-11-06T08:19:43.621Z,10200
2018-11-06T08:20:43.974Z,10192
2018-11-06T08:21:43.933Z,10176
2018-11-06T08:22:43.721Z,10216
2018-11-06T08:23:44.289Z,10200
2018-11-06T08:24:43.735Z,10208
2018-11-06T08:25:58.416Z,10232
2018-11-06T08:26:44.025Z,10264
2018-11-06T08:27:44.041Z,10232
2018-11-06T08:28:44.079Z,10284
2018-11-06T08:29:43.846Z,10272
2018-11-06T08:30:45.164Z,10312
2018-11-06T08:31:44.863Z,10292
2018-11-06T08:32:46.527Z,10284
2018-11-06T08:33:44.201Z,10308
2018-11-06T08:34:43.967Z,10284
2018-11-06T08:35:44.214Z,10384
2018-11-06T08:36:44.341Z,10364
2018-11-06T08:37:58.957Z,10400
2018-11-06T08:38:44.043Z,10412
2018-11-06T08:39:44.078Z,10368
2018-11-06T08:40:44.067Z,10404
2018-11-06T08:41:44.379Z,10424
2018-11-06T08:42:44.652Z,10440
2018-11-06T08:43:44.412Z,10500
2018-11-06T08:44:44.433Z,10524
2018-11-06T08:45:43.909Z,10580
2018-11-06T08:46:44.446Z,10592
2018-11-06T08:47:44.491Z,10632
2018-11-06T08:48:44.260Z,10736
2018-11-06T08:49:44.581Z,10696
2018-11-06T08:50:44.293Z,10672
2018-11-06T08:51:44.325Z,10608
2018-11-06T08:52:44.575Z,10660
2018-11-06T08:53:59.270Z,10608
2018-11-06T08:54:44.914Z,10588
2018-11-06T08:55:44.426Z,10584
2018-11-06T08:56:44.173Z,10624
2018-11-06T08:57:59.344Z,10608
2018-11-06T08:58:44.481Z,10600
2018-11-06T08:59:44.721Z,10552
2018-11-06T09:00:44.778Z,10524
2018-11-06T09:01:44.507Z,10524
2018-11-06T09:02:45.355Z,10484
2018-11-06T09:03:59.536Z,10444
2018-11-06T09:04:44.849Z,10436
2018-11-06T09:05:44.599Z,10408
2018-11-06T09:06:44.620Z,10372
2018-11-06T09:07:44.946Z,10356
2018-11-06T09:08:45.190Z,10348
2018-11-06T09:09:59.612Z,10292
2018-11-06T09:11:45.009Z,10264
2018-11-06T09:12:45.048Z,10256
2018-11-06T09:13:45.063Z,10228
2018-11-06T09:14:45.062Z,10228
2018-11-06T09:15:44.851Z,10224
2018-11-06T09:17:59.816Z,10208
2018-11-06T09:18:44.871Z,10300
2018-11-06T09:19:44.936Z,10320
2018-11-06T09:20:45.201Z,10356
2018-11-06T09:22:45.232Z,10784
2018-11-06T09:23:44.985Z,11116
2018-11-06T09:24:45.036Z,11036
2018-11-06T09:26:14.602Z,10988
2018-11-06T09:26:44.821Z,10912
2018-11-06T09:27:45.090Z,10724
2018-11-06T09:28:45.119Z,10592
2018-11-06T09:29:45.369Z,10524
2018-11-06T09:30:45.184Z,10560
2018-11-06T09:31:45.459Z,10544
2018-11-06T09:32:45.459Z,10388
2018-11-06T09:33:45.515Z,10424
2018-11-06T09:34:45.221Z,10424
2018-11-06T09:35:45.377Z,10408
2018-11-06T09:36:45.275Z,10328
2018-11-06T09:37:45.312Z,10312
2018-11-06T09:39:45.612Z,10252
2018-11-06T09:41:14.972Z,10188
2018-11-06T09:41:45.679Z,10180
2018-11-06T09:43:00.064Z,10048
2018-11-06T09:43:45.718Z,10076
2018-11-06T09:44:45.753Z,10064
2018-11-06T09:45:45.479Z,9976
2018-11-06T09:46:45.571Z,9912
2018-11-06T09:48:00.429Z,9732
2018-11-06T09:48:45.872Z,9608
2018-11-06T09:49:45.850Z,9496
2018-11-06T09:50:45.613Z,9440
2018-11-06T09:51:45.361Z,9340
2018-11-06T09:53:00.305Z,9236
2018-11-06T09:53:45.637Z,9136
2018-11-06T09:54:45.924Z,8836
2018-11-06T09:56:45.990Z,8048
2018-11-06T09:57:46.136Z,7656
2018-11-06T09:59:45.835Z,7044
2018-11-06T10:00:46.057Z,6780
2018-11-06T10:01:46.090Z,6532
2018-11-06T10:02:45.853Z,6312
2018-11-06T10:03:45.644Z,6108
2018-11-06T10:04:45.892Z,5896
2018-11-06T10:05:45.947Z,5720
2018-11-06T10:06:46.824Z,5568
2018-11-06T10:07:46.662Z,5448
2018-11-06T10:08:46.244Z,5332
2018-11-06T10:09:46.302Z,5220
2018-11-06T10:11:00.937Z,5076
2018-11-06T10:11:46.296Z,4992
2018-11-06T10:13:01.012Z,4884
2018-11-06T10:13:46.358Z,4816
2018-11-06T10:14:46.408Z,4736
2018-11-06T10:15:46.919Z,4668
2018-11-06T10:16:46.445Z,4616
2018-11-06T10:17:46.450Z,4572
2018-11-06T10:18:46.209Z,4540
2018-11-06T10:20:46.492Z,4512
2018-11-06T10:21:46.259Z,4496
2018-11-06T10:23:01.233Z,4492
2018-11-06T10:23:46.565Z,4484
2018-11-06T10:24:46.120Z,4476
2018-11-06T10:25:46.358Z,4472
2018-11-06T10:27:46.647Z,4476
2018-11-06T10:29:01.341Z,4468
2018-11-06T10:30:01.126Z,4460
2018-11-06T10:30:46.669Z,4452
2018-11-06T10:31:46.775Z,4452
2018-11-06T10:33:01.182Z,4440
2018-11-06T10:33:46.278Z,4440
2018-11-06T10:34:46.847Z,4436
2018-11-06T10:35:46.603Z,4436
2018-11-06T10:36:46.610Z,4428
2018-11-06T10:37:46.884Z,4416
2018-11-06T10:38:46.904Z,4420
2018-11-06T10:39:46.694Z,4420
2018-11-06T10:40:46.953Z,4412
2018-11-06T10:41:47.001Z,4396
2018-11-06T10:42:46.460Z,4380
2018-11-06T10:43:47.377Z,4376
2018-11-06T10:45:01.691Z,4368
2018-11-06T10:45:47.048Z,4376
2018-11-06T10:47:01.494Z,4372
2018-11-06T10:47:47.096Z,4368
2018-11-06T10:48:47.154Z,4364
2018-11-06T10:49:46.899Z,4376
2018-11-06T10:51:46.768Z,4352
2018-11-06T10:52:46.957Z,4348
2018-11-06T10:53:47.255Z,4340
2018-11-06T10:54:47.275Z,4332
2018-11-06T10:56:46.773Z,4304
2018-11-06T10:57:47.355Z,4308
2018-11-06T10:59:47.380Z,4308
2018-11-06T11:01:02.065Z,4312
2018-11-06T11:02:47.210Z,4316
2018-11-06T11:03:47.494Z,4316
2018-11-06T11:05:47.537Z,4312
2018-11-06T11:06:47.551Z,4312
2018-11-06T11:07:47.048Z,4312
2018-11-06T11:08:47.301Z,4304
2018-11-06T11:09:47.575Z,4288
2018-11-06T11:10:47.626Z,4292
2018-11-06T11:11:47.386Z,4296
2018-11-06T11:12:47.512Z,4284
2018-11-06T11:13:47.693Z,4284
2018-11-06T11:14:47.739Z,4288
2018-11-06T11:16:02.382Z,4284
2018-11-06T11:17:02.400Z,4276
2018-11-06T11:17:47.785Z,4276
2018-11-06T11:18:47.550Z,4272
2018-11-06T11:19:47.319Z,4264
2018-11-06T11:20:47.827Z,4272
2018-11-06T11:21:48.020Z,4264
2018-11-06T11:22:48.027Z,4260
2018-11-06T11:23:47.941Z,4260
2018-11-06T11:24:47.913Z,4260
2018-11-06T11:25:47.944Z,4264
2018-11-06T11:26:47.725Z,4264
2018-11-06T11:27:47.742Z,4268
2018-11-06T11:29:48.061Z,4260
2018-11-06T11:30:48.054Z,4256
2018-11-06T11:31:48.108Z,4264
2018-11-06T11:32:48.116Z,4264
2018-11-06T11:35:02.810Z,4252
2018-11-06T11:35:47.927Z,4256
2018-11-06T11:36:48.222Z,4248
2018-11-06T11:38:03.080Z,4248
2018-11-06T11:39:02.913Z,4252
2018-11-06T11:41:02.927Z,4240
2018-11-06T11:41:48.330Z,4236
2018-11-06T11:42:48.070Z,4240
2018-11-06T11:44:03.022Z,4240
2018-11-06T11:44:48.368Z,4240
2018-11-06T11:46:03.223Z,4240
2018-11-06T11:46:48.398Z,4240
2018-11-06T11:48:03.081Z,4236
2018-11-06T11:48:48.483Z,4240
2018-11-06T11:50:03.129Z,4240
2018-11-06T11:50:48.530Z,4232
2018-11-06T11:51:48.539Z,4224
2018-11-06T11:52:48.042Z,4216
2018-11-06T11:53:48.570Z,4204
2018-11-06T11:54:48.639Z,4196
2018-11-06T11:55:48.618Z,4192
2018-11-06T11:57:03.035Z,4176
2018-11-06T11:57:48.653Z,4172
2018-11-06T11:58:48.449Z,4192
2018-11-06T11:59:48.739Z,4184
2018-11-06T12:00:48.762Z,4184
2018-11-06T12:01:48.290Z,4184
2018-11-06T12:02:48.542Z,4188
2018-11-06T12:04:03.193Z,4196
2018-11-06T12:04:48.545Z,4192
2018-11-06T12:05:48.594Z,4200
2018-11-06T12:06:48.356Z,4196
2018-11-06T12:07:48.875Z,4188
2018-11-06T12:08:48.929Z,4192
2018-11-06T12:10:03.676Z,4196
2018-11-06T12:10:48.977Z,4192
2018-11-06T12:11:48.971Z,4200
2018-11-06T12:12:49.019Z,4196
2018-11-06T12:14:03.147Z,4184
2018-11-06T12:15:03.425Z,4184
2018-11-06T12:15:48.831Z,4180
2018-11-06T12:16:48.832Z,4172
2018-11-06T12:17:48.879Z,4172
2018-11-06T12:20:03.564Z,4156
2018-11-06T12:20:49.162Z,4152
2018-11-06T12:21:48.701Z,4140
2018-11-06T12:23:03.923Z,4132
2018-11-06T12:23:49.262Z,4132
2018-11-06T12:24:49.624Z,4128
2018-11-06T12:25:50.647Z,4124
2018-11-06T12:26:49.297Z,4124
2018-11-06T12:29:04.035Z,4116
2018-11-06T12:30:03.764Z,4124
2018-11-06T12:30:49.165Z,4128
2018-11-06T12:31:49.401Z,4140
2018-11-06T12:32:49.696Z,4140
2018-11-06T12:33:49.448Z,4140
2018-11-06T12:34:49.263Z,4136
2018-11-06T12:36:04.183Z,4132
2018-11-06T12:37:04.549Z,4124
2018-11-06T12:38:04.231Z,4112
2018-11-06T12:39:49.598Z,4096
2018-11-06T12:42:49.756Z,4084
2018-11-06T12:43:49.616Z,4080
2018-11-06T12:44:49.741Z,4068
2018-11-06T12:45:49.717Z,4068
2018-11-06T12:46:49.776Z,4072
2018-11-06T12:47:49.766Z,4064
2018-11-06T12:48:49.560Z,4068
2018-11-06T12:49:49.828Z,4044
2018-11-06T12:51:49.866Z,4028
2018-11-06T12:52:49.969Z,4004
2018-11-06T12:53:49.907Z,3996
2018-11-06T12:54:49.956Z,4004
2018-11-06T12:55:49.680Z,4020
2018-11-06T12:56:49.994Z,4012
2018-11-06T12:57:49.982Z,4012
2018-11-06T12:58:49.786Z,4024
2018-11-06T12:59:50.063Z,4024
2018-11-06T13:00:50.090Z,4024
2018-11-06T13:01:49.825Z,4016
2018-11-06T13:02:49.847Z,4004
2018-11-06T13:03:49.884Z,3988
2018-11-06T13:05:04.829Z,3972
2018-11-06T13:05:50.263Z,3960
2018-11-06T13:06:50.194Z,3964
2018-11-06T13:07:50.255Z,3964
2018-11-06T13:11:04.441Z,3964
2018-11-06T13:11:50.403Z,3940
2018-11-06T13:12:50.102Z,3944
2018-11-06T13:14:05.033Z,3920
2018-11-06T13:14:50.397Z,3912
2018-11-06T13:15:50.661Z,3892
2018-11-06T13:16:50.588Z,3884
2018-11-06T13:17:50.549Z,3880
2018-11-06T13:19:05.129Z,3864
2018-11-06T13:20:05.139Z,3860
2018-11-06T13:20:50.265Z,3848
2018-11-06T13:21:50.263Z,3832
2018-11-06T13:23:05.230Z,3808
2018-11-06T13:23:50.601Z,3800
2018-11-06T13:24:50.349Z,3800
2018-11-06T13:25:51.114Z,3784
2018-11-06T13:26:50.634Z,3764
2018-11-06T13:27:50.695Z,3756
2018-11-06T13:29:05.340Z,3732
2018-11-06T13:29:50.748Z,3728
2018-11-06T13:30:51.202Z,3704
2018-11-06T13:31:50.779Z,3680
2018-11-06T13:32:50.762Z,3676
2018-11-06T13:33:50.797Z,3660
2018-11-06T13:35:05.497Z,3652
2018-11-06T13:35:50.852Z,3648
2018-11-06T13:36:50.638Z,3644
2018-11-06T13:37:50.886Z,3628
2018-11-06T13:39:05.591Z,3596
2018-11-06T13:39:50.928Z,3588
2018-11-06T13:40:50.437Z,3576
2018-11-06T13:42:52.268Z,3560
2018-11-06T13:43:51.827Z,3548
2018-11-06T13:44:53.379Z,3532
2018-11-06T13:45:51.822Z,3512
2018-11-06T13:46:50.862Z,3504
2018-11-06T13:47:50.878Z,3480
2018-11-06T13:49:05.822Z,3476
2018-11-06T13:49:50.884Z,3468
2018-11-06T13:50:51.174Z,3448
2018-11-06T13:51:50.954Z,3428
2018-11-06T13:52:51.263Z,3408
2018-11-06T13:55:05.919Z,3372
2018-11-06T13:55:51.330Z,3352
2018-11-06T13:56:51.302Z,3332
2018-11-06T13:58:51.376Z,3276
2018-11-06T14:00:06.041Z,3252
2018-11-06T14:00:51.431Z,3224
2018-11-06T14:02:06.069Z,3192
2018-11-06T14:03:05.868Z,3160
2018-11-06T14:03:51.202Z,3144
2018-11-06T14:05:06.141Z,3104
2018-11-06T14:05:51.541Z,3088
2018-11-06T14:07:06.193Z,3052
2018-11-06T14:07:51.595Z,3028
2018-11-06T14:08:51.069Z,2996
2018-11-06T14:09:51.650Z,2964
2018-11-06T14:11:06.267Z,2912
2018-11-06T14:11:51.675Z,2888
2018-11-06T14:12:51.412Z,2856
2018-11-06T14:13:51.691Z,2824
2018-11-06T14:14:51.700Z,2796
2018-11-06T14:15:51.765Z,2752
2018-11-06T14:16:51.496Z,2708
2018-11-06T14:17:51.807Z,2656
2018-11-06T14:18:51.783Z,2612
2018-11-06T14:19:51.868Z,2568
2018-11-06T14:20:51.886Z,2512
2018-11-06T14:21:51.874Z,2452
2018-11-06T14:23:51.946Z,2312
2018-11-06T14:24:51.960Z,2232
2018-11-06T14:26:06.605Z,2116
2018-11-06T14:26:52.139Z,2048
2018-11-06T14:28:52.049Z,1916
2018-11-06T14:30:06.702Z,1880
2018-11-06T14:30:51.831Z,1864
2018-11-06T14:31:51.676Z,1844
2018-11-06T14:33:06.496Z,1816
2018-11-06T14:34:06.374Z,1796
2018-11-06T14:34:52.172Z,1780
2018-11-06T14:35:52.227Z,1756
2018-11-06T14:36:52.252Z,1732
2018-11-06T14:37:51.966Z,1704
2018-11-06T14:38:52.291Z,1676
2018-11-06T14:39:51.765Z,1652
2018-11-06T14:40:52.281Z,1628
2018-11-06T14:42:06.995Z,1592
2018-11-06T14:42:52.862Z,1572
2018-11-06T14:43:52.377Z,1544
2018-11-06T14:44:52.372Z,1516
2018-11-06T14:45:52.391Z,1488
2018-11-06T14:46:52.438Z,1464
2018-11-06T14:47:52.863Z,1436
2018-11-06T14:48:52.794Z,1404
2018-11-06T14:49:52.211Z,1380
2018-11-06T14:50:52.518Z,1348